createdAt,value
2022-10-24T00:01:11.887Z,61.64
2022-10-24T00:03:38.954Z,61.23
2022-10-24T00:06:06.679Z,61.55
2022-10-24T00:08:34.112Z,61.60
2022-10-24T00:11:01.070Z,61.42
2022-10-24T00:13:27.730Z,61.63
2022-10-24T00:15:54.498Z,61.43
2022-10-24T00:18:21.417Z,61.70
2022-10-24T00:20:48.090Z,61.91
2022-10-24T00:23:14.837Z,62.02
2022-10-24T00:25:41.895Z,62.26
2022-10-24T00:28:08.573Z,62.29
2022-10-24T00:30:35.234Z,61.85
2022-10-24T00:33:02.283Z,62.09
2022-10-24T00:35:28.997Z,62.04
2022-10-24T00:37:55.695Z,61.73
2022-10-24T00:40:22.861Z,61.81
2022-10-24T00:42:49.685Z,62.43
2022-10-24T00:45:38.165Z,62.42
2022-10-24T00:48:10.421Z,62.06
2022-10-24T00:50:37.059Z,62.24
2022-10-24T00:53:03.793Z,62.61
2022-10-24T00:55:30.956Z,62.53
2022-10-24T00:58:01.644Z,61.84
2022-10-24T01:00:29.839Z,62.27
2022-10-24T01:02:57.068Z,62.78
2022-10-24T01:05:24.236Z,62.33
2022-10-24T01:08:06.521Z,62.25
2022-10-24T01:10:38.216Z,62.39
2022-10-24T01:13:08.169Z,62.62
2022-10-24T01:15:53.857Z,62.56
2022-10-24T01:18:23.914Z,62.84
2022-10-24T01:20:56.701Z,62.15
2022-10-24T01:23:45.679Z,62.43
2022-10-24T01:26:14.864Z,62.08
2022-10-24T01:29:00.399Z,62.64
2022-10-24T01:31:34.567Z,62.56
2022-10-24T01:34:04.411Z,62.71
2022-10-24T01:36:39.106Z,62.44
2022-10-24T01:39:08.101Z,62.68
2022-10-24T01:41:35.034Z,61.59
2022-10-24T01:44:07.633Z,62.47
2022-10-24T01:46:36.004Z,62.46
2022-10-24T01:49:04.521Z,62.40
2022-10-24T01:51:31.202Z,62.47
2022-10-24T01:53:57.853Z,62.16
2022-10-24T01:56:27.782Z,61.78
2022-10-24T01:59:03.654Z,62.07
2022-10-24T02:01:30.611Z,62.02
2022-10-24T02:03:58.190Z,62.02
2022-10-24T02:06:27.479Z,61.66
2022-10-24T02:08:58.622Z,62.13
2022-10-24T02:11:25.797Z,62.41
2022-10-24T02:13:54.177Z,61.72
2022-10-24T02:16:21.439Z,61.83
2022-10-24T02:18:49.610Z,61.61
2022-10-24T02:21:25.169Z,61.50
2022-10-24T02:23:56.238Z,61.62
2022-10-24T02:26:44.087Z,62.38
2022-10-24T02:29:12.311Z,62.01
2022-10-24T02:31:39.952Z,62.99
2022-10-24T02:34:07.682Z,62.75
2022-10-24T02:36:34.695Z,62.01
2022-10-24T02:39:01.378Z,61.91
2022-10-24T02:41:29.308Z,62.16
2022-10-24T02:43:56.270Z,62.17
2022-10-24T02:46:23.013Z,62.21
2022-10-24T02:48:50.547Z,61.85
2022-10-24T02:51:18.212Z,62.06
2022-10-24T02:53:44.872Z,61.99
2022-10-24T02:56:11.516Z,62.47
2022-10-24T02:58:38.488Z,61.70
2022-10-24T03:01:05.279Z,62.22
2022-10-24T03:03:32.057Z,61.82
2022-10-24T03:05:58.982Z,62.31
2022-10-24T03:08:25.627Z,61.79
2022-10-24T03:10:52.261Z,61.78
2022-10-24T03:13:19.178Z,61.70
2022-10-24T03:18:17.395Z,61.76
2022-10-24T03:20:44.307Z,61.35
2022-10-24T03:23:10.937Z,61.61
2022-10-24T03:25:37.656Z,61.99
2022-10-24T03:28:04.724Z,62.82
2022-10-24T03:30:31.397Z,62.74
2022-10-24T03:32:58.148Z,62.56
2022-10-24T03:35:25.083Z,62.51
2022-10-24T03:37:51.718Z,62.35
2022-10-24T03:40:18.446Z,62.45
2022-10-24T03:42:45.622Z,62.17
2022-10-24T03:45:12.520Z,62.41
2022-10-24T03:47:39.206Z,62.59
2022-10-24T03:50:06.506Z,62.36
2022-10-24T03:52:33.179Z,62.25
2022-10-24T03:54:59.805Z,62.91
2022-10-24T03:57:26.792Z,62.68
2022-10-24T03:59:53.464Z,63.04
2022-10-24T04:02:20.175Z,62.65
2022-10-24T04:04:47.142Z,62.09
2022-10-24T04:07:13.799Z,62.72
2022-10-24T04:09:40.486Z,62.99
2022-10-24T04:12:07.576Z,62.04
2022-10-24T04:14:34.212Z,61.93
2022-10-24T04:17:00.895Z,62.09
2022-10-24T04:19:27.911Z,61.73
2022-10-24T04:21:54.795Z,61.81
2022-10-24T04:24:21.471Z,62.32
2022-10-24T04:26:48.384Z,61.99
2022-10-24T04:29:15.076Z,61.96
2022-10-24T04:31:41.755Z,62.41
2022-10-24T04:34:08.770Z,62.59
2022-10-24T04:36:35.434Z,61.90
2022-10-24T04:39:02.212Z,62.16
2022-10-24T04:41:29.139Z,62.14
2022-10-24T04:43:55.807Z,62.13
2022-10-24T04:46:22.601Z,61.59
2022-10-24T04:48:52.062Z,62.19
2022-10-24T04:51:21.637Z,63.39
2022-10-24T04:53:49.840Z,62.11
2022-10-24T04:56:17.026Z,62.25
2022-10-24T04:58:44.713Z,61.71
2022-10-24T05:01:11.961Z,62.17
2022-10-24T05:03:38.748Z,62.37
2022-10-24T05:06:05.631Z,61.85
2022-10-24T05:08:32.544Z,61.73
2022-10-24T05:10:59.248Z,61.63
2022-10-24T05:13:26.195Z,62.10
2022-10-24T05:15:53.255Z,61.79
2022-10-24T05:18:19.922Z,61.54
2022-10-24T05:20:46.732Z,62.63
2022-10-24T05:23:13.651Z,62.77
2022-10-24T05:25:40.298Z,62.48
2022-10-24T05:28:06.954Z,61.97
2022-10-24T05:30:33.908Z,62.25
2022-10-24T05:33:00.534Z,62.00
2022-10-24T05:35:27.178Z,61.67
2022-10-24T05:37:54.110Z,61.27
2022-10-24T05:40:20.763Z,60.50
2022-10-24T05:42:48.762Z,61.26
2022-10-24T05:45:15.833Z,61.13
2022-10-24T05:47:42.747Z,61.65
2022-10-24T05:50:09.872Z,62.21
2022-10-24T05:52:36.970Z,62.00
2022-10-24T05:55:08.076Z,63.21
2022-10-24T05:57:35.523Z,62.39
2022-10-24T06:00:02.979Z,61.57
2022-10-24T06:02:38.599Z,61.30
2022-10-24T06:05:05.984Z,61.04
2022-10-24T06:07:32.667Z,62.01
2022-10-24T06:09:59.478Z,61.70
2022-10-24T06:12:26.592Z,61.39
2022-10-24T06:14:57.255Z,61.65
2022-10-24T06:17:23.912Z,61.88
2022-10-24T06:19:51.143Z,61.97
2022-10-24T06:22:18.408Z,61.43
2022-10-24T06:24:45.233Z,60.97
2022-10-24T06:27:12.829Z,61.59
2022-10-24T06:29:39.579Z,61.33
2022-10-24T06:32:06.317Z,61.10
2022-10-24T06:34:40.947Z,61.54
2022-10-24T06:37:10.681Z,61.32
2022-10-24T06:39:40.024Z,61.10
2022-10-24T06:42:06.674Z,61.36
2022-10-24T06:44:33.309Z,61.73
2022-10-24T06:47:02.471Z,62.59
2022-10-24T06:49:29.219Z,62.23
2022-10-24T06:51:57.431Z,62.66
2022-10-24T06:54:26.525Z,62.90
2022-10-24T06:56:56.014Z,62.38
2022-10-24T06:59:22.663Z,63.03
2022-10-24T07:01:51.956Z,62.99
2022-10-24T07:04:18.792Z,62.71
2022-10-24T07:06:48.606Z,63.03
2022-10-24T07:09:15.811Z,62.43
2022-10-24T07:11:45.806Z,62.75
2022-10-24T07:14:14.768Z,63.38
2022-10-24T07:16:41.689Z,63.65
2022-10-24T07:19:11.116Z,62.49
2022-10-24T07:21:37.912Z,62.17
2022-10-24T07:24:05.134Z,62.81
2022-10-24T07:26:32.017Z,62.41
2022-10-24T07:31:34.075Z,62.32
2022-10-24T07:34:01.523Z,62.54
2022-10-24T07:36:30.031Z,62.41
2022-10-24T07:38:57.357Z,63.52
2022-10-24T07:41:25.290Z,63.08
2022-10-24T07:43:52.243Z,61.97
2022-10-24T07:46:19.224Z,61.97
2022-10-24T07:48:45.886Z,61.99
2022-10-24T07:51:13.179Z,62.47
2022-10-24T07:53:40.475Z,62.20
2022-10-24T07:56:09.506Z,63.00
2022-10-24T07:58:36.670Z,62.42
2022-10-24T08:01:08.052Z,62.98
2022-10-24T08:03:35.034Z,62.82
2022-10-24T08:06:04.525Z,62.70
2022-10-24T08:08:36.913Z,62.43
2022-10-24T08:11:08.520Z,62.02
2022-10-24T08:13:35.266Z,62.67
2022-10-24T08:16:02.929Z,62.00
2022-10-24T08:18:30.457Z,62.69
2022-10-24T08:20:58.693Z,61.70
2022-10-24T08:23:25.718Z,62.41
2022-10-24T08:25:52.914Z,61.90
2022-10-24T08:28:19.661Z,62.00
2022-10-24T08:30:54.621Z,61.93
2022-10-24T08:33:22.626Z,61.72
2022-10-24T08:35:49.260Z,61.97
2022-10-24T08:38:15.943Z,61.99
2022-10-24T08:40:42.958Z,61.62
2022-10-24T08:43:10.302Z,62.56
2022-10-24T08:45:43.723Z,62.00
2022-10-24T08:48:13.607Z,61.90
2022-10-24T08:50:41.551Z,62.07
2022-10-24T08:53:11.306Z,63.11
2022-10-24T08:55:48.775Z,62.93
2022-10-24T08:58:16.899Z,63.60
2022-10-24T09:00:44.928Z,63.21
2022-10-24T09:03:43.852Z,62.82
2022-10-24T09:06:24.640Z,63.73
2022-10-24T09:08:55.504Z,62.57
2022-10-24T09:11:48.987Z,62.77
2022-10-24T09:14:16.788Z,62.94
2022-10-24T09:16:44.406Z,62.27
2022-10-24T09:19:18.989Z,62.90
2022-10-24T09:21:45.975Z,62.62
2022-10-24T09:24:17.748Z,63.10
2022-10-24T09:26:45.814Z,62.62
2022-10-24T09:29:12.773Z,62.81
2022-10-24T09:31:39.476Z,62.80
2022-10-24T09:34:06.743Z,62.59
2022-10-24T09:36:33.709Z,62.65
2022-10-24T09:39:14.401Z,62.22
2022-10-24T09:41:41.301Z,62.53
2022-10-24T09:44:09.070Z,62.57
2022-10-24T09:46:36.421Z,62.24
2022-10-24T09:49:12.561Z,62.56
2022-10-24T09:51:42.844Z,62.96
2022-10-24T09:54:09.751Z,62.50
2022-10-24T09:56:41.358Z,62.02
2022-10-24T09:59:16.857Z,61.81
2022-10-24T10:01:45.622Z,62.34
2022-10-24T10:04:17.306Z,62.11
2022-10-24T10:06:45.353Z,61.57
2022-10-24T10:09:13.994Z,61.92
2022-10-24T10:11:44.767Z,62.55
2022-10-24T10:14:20.792Z,63.05
2022-10-24T10:16:48.812Z,63.20
2022-10-24T10:19:15.549Z,63.08
2022-10-24T10:21:57.861Z,63.07
2022-10-24T10:24:26.263Z,62.98
2022-10-24T10:26:53.204Z,63.09
2022-10-24T10:29:21.551Z,62.98
2022-10-24T10:31:58.632Z,62.77
2022-10-24T10:34:43.227Z,63.16
2022-10-24T10:37:25.114Z,62.75
2022-10-24T10:40:11.463Z,62.93
2022-10-24T10:42:41.759Z,62.34
2022-10-24T10:45:13.743Z,61.83
2022-10-24T10:47:47.241Z,62.11
2022-10-24T10:50:27.158Z,62.29
2022-10-24T10:52:55.737Z,62.70
2022-10-24T10:55:22.737Z,62.72
2022-10-24T10:57:55.020Z,62.10
2022-10-24T11:00:34.373Z,61.45
2022-10-24T11:03:16.262Z,61.65
2022-10-24T11:05:47.354Z,61.31
2022-10-24T11:08:17.177Z,61.95
2022-10-24T11:11:06.600Z,61.84
2022-10-24T11:13:34.934Z,61.49
2022-10-24T11:16:02.623Z,61.80
2022-10-24T11:18:36.448Z,61.42
2022-10-24T11:21:07.588Z,61.01
2022-10-24T11:23:34.345Z,60.49
2022-10-24T11:26:03.281Z,60.81
2022-10-24T11:28:39.891Z,60.23
2022-10-24T11:31:06.524Z,59.88
2022-10-24T11:33:40.138Z,60.06
2022-10-24T11:36:33.292Z,59.91
2022-10-24T11:39:09.706Z,60.55
2022-10-24T11:41:51.979Z,60.88
2022-10-24T11:44:28.732Z,60.04
2022-10-24T11:47:15.689Z,60.52
2022-10-24T11:49:43.846Z,60.00
2022-10-24T11:52:36.995Z,60.54
2022-10-24T11:55:06.756Z,60.16
2022-10-24T11:57:39.271Z,59.94
2022-10-24T12:00:06.615Z,59.98
2022-10-24T12:02:38.241Z,59.17
2022-10-24T12:05:37.646Z,60.21
2022-10-24T12:08:18.173Z,59.59
2022-10-24T12:11:06.020Z,60.25
2022-10-24T12:13:42.933Z,60.09
2022-10-24T12:16:24.680Z,60.06
2022-10-24T12:18:52.902Z,60.37
2022-10-24T12:21:26.991Z,59.98
2022-10-24T12:23:57.696Z,59.80
2022-10-24T12:26:28.730Z,60.05
2022-10-24T12:28:59.670Z,59.31
2022-10-24T12:31:30.572Z,59.76
2022-10-24T12:34:15.548Z,59.82
2022-10-24T12:37:01.269Z,59.60
2022-10-24T12:39:28.804Z,60.31
2022-10-24T12:41:56.675Z,59.79
2022-10-24T12:44:24.630Z,59.69
2022-10-24T12:46:51.333Z,59.38
2022-10-24T12:49:23.112Z,59.01
2022-10-24T12:51:52.372Z,59.23
2022-10-24T12:54:19.418Z,59.55
2022-10-24T12:56:49.077Z,59.58
2022-10-24T12:59:27.872Z,59.41
2022-10-24T13:02:28.247Z,59.49
2022-10-24T13:05:10.791Z,59.16
2022-10-24T13:07:51.115Z,59.42
2022-10-24T13:10:36.696Z,60.22
2022-10-24T13:13:22.392Z,60.69
2022-10-24T13:15:49.411Z,59.83
2022-10-24T13:18:32.422Z,59.50
2022-10-24T13:21:18.955Z,59.07
2022-10-24T13:23:46.764Z,59.79
2022-10-24T13:26:32.337Z,59.45
2022-10-24T13:28:59.695Z,59.55
2022-10-24T13:31:26.645Z,59.98
2022-10-24T13:33:54.641Z,61.58
2022-10-24T13:36:28.740Z,62.06
2022-10-24T13:38:56.377Z,60.85
2022-10-24T13:41:31.706Z,60.51
2022-10-24T13:44:03.474Z,60.30
2022-10-24T13:46:32.635Z,60.91
2022-10-24T13:48:59.391Z,60.31
2022-10-24T13:51:42.746Z,59.80
2022-10-24T13:54:26.735Z,61.17
2022-10-24T13:56:57.068Z,63.03
2022-10-24T13:59:30.465Z,61.89
2022-10-24T14:01:57.988Z,60.92
2022-10-24T14:04:25.509Z,60.32
2022-10-24T14:06:52.226Z,60.04
2022-10-24T14:09:18.887Z,60.30
2022-10-24T14:11:46.194Z,60.69
2022-10-24T14:14:33.300Z,60.91
2022-10-24T14:17:07.551Z,60.72
2022-10-24T14:19:38.100Z,62.01
2022-10-24T14:22:16.413Z,60.68
2022-10-24T14:24:43.746Z,61.12
2022-10-24T14:27:11.076Z,60.75
2022-10-24T14:29:37.799Z,62.53
2022-10-24T14:32:07.919Z,61.42
2022-10-24T14:34:36.412Z,61.24
2022-10-24T14:37:05.366Z,61.04
2022-10-24T14:39:32.056Z,60.96
2022-10-24T14:42:01.519Z,60.91
2022-10-24T14:44:28.180Z,61.02
2022-10-24T14:47:05.170Z,61.80
2022-10-24T14:49:33.915Z,62.38
2022-10-24T14:52:01.227Z,62.07
2022-10-24T14:54:32.246Z,61.21
2022-10-24T14:57:00.748Z,61.26
2022-10-24T14:59:38.045Z,61.13
2022-10-24T15:02:06.659Z,61.27
2022-10-24T15:04:38.608Z,61.34
2022-10-24T15:07:24.415Z,60.78
2022-10-24T15:10:00.504Z,60.91
2022-10-24T15:12:31.190Z,60.86
2022-10-24T15:15:21.537Z,61.39
2022-10-24T15:17:50.368Z,61.69
2022-10-24T15:20:18.457Z,60.99
2022-10-24T15:22:49.365Z,60.95
2022-10-24T15:25:18.763Z,60.49
2022-10-24T15:27:46.394Z,60.61
2022-10-24T15:30:14.116Z,60.51
2022-10-24T15:32:41.036Z,60.91
2022-10-24T15:35:07.820Z,60.93
2022-10-24T15:37:35.328Z,60.87
2022-10-24T15:40:03.973Z,61.44
2022-10-24T15:42:31.027Z,61.18
2022-10-24T15:44:57.747Z,61.46
2022-10-24T15:47:25.091Z,61.42
2022-10-24T15:49:52.271Z,61.35
2022-10-24T15:52:19.157Z,61.49
2022-10-24T15:54:46.229Z,61.08
2022-10-24T15:57:13.458Z,61.41
2022-10-24T15:59:40.117Z,61.42
2022-10-24T16:02:09.585Z,61.20
2022-10-24T16:04:40.247Z,61.49
2022-10-24T16:07:06.958Z,61.43
2022-10-24T16:09:33.606Z,61.73
2022-10-24T16:12:00.779Z,61.40
2022-10-24T16:14:27.934Z,61.75
2022-10-24T16:16:57.498Z,61.43
2022-10-24T16:19:26.463Z,61.03
2022-10-24T16:21:54.625Z,61.32
2022-10-24T16:24:21.353Z,61.46
2022-10-24T16:26:48.692Z,61.39
2022-10-24T16:29:15.685Z,61.92
2022-10-24T16:31:43.878Z,61.62
2022-10-24T16:34:11.050Z,61.68
2022-10-24T16:36:41.188Z,61.37
2022-10-24T16:39:09.136Z,61.85
2022-10-24T16:41:38.182Z,61.76
2022-10-24T16:44:05.973Z,61.93
2022-10-24T16:46:33.758Z,61.39
2022-10-24T16:49:00.967Z,61.91
2022-10-24T16:51:32.354Z,61.13
2022-10-24T16:54:01.125Z,61.19
2022-10-24T16:56:28.931Z,61.65
2022-10-24T16:58:57.078Z,61.66
2022-10-24T17:01:23.962Z,61.38
2022-10-24T17:03:50.945Z,62.01
2022-10-24T17:06:17.763Z,61.72
2022-10-24T17:08:45.017Z,61.61
2022-10-24T17:11:39.385Z,61.55
2022-10-24T17:13:59.552Z,61.80
2022-10-24T17:16:26.699Z,61.67
2022-10-24T17:19:05.675Z,61.49
2022-10-24T17:21:42.740Z,61.93
2022-10-24T17:24:12.050Z,61.38
2022-10-24T17:26:39.509Z,61.65
2022-10-24T17:29:08.608Z,61.60
2022-10-24T17:31:35.809Z,61.71
2022-10-24T17:34:03.095Z,61.29
2022-10-24T17:36:30.783Z,61.57
2022-10-24T17:39:00.089Z,61.50
2022-10-24T17:41:34.755Z,60.99
2022-10-24T17:44:02.522Z,61.45
2022-10-24T17:46:29.950Z,61.63
2022-10-24T17:48:58.368Z,61.20
2022-10-24T17:51:26.673Z,60.87
2022-10-24T17:53:54.395Z,60.47
2022-10-24T17:56:24.856Z,60.59
2022-10-24T17:58:54.572Z,60.56
2022-10-24T18:01:25.599Z,60.64
2022-10-24T18:03:53.136Z,60.69
2022-10-24T18:06:19.899Z,60.45
2022-10-24T18:08:49.149Z,60.28
2022-10-24T18:11:16.707Z,60.40
2022-10-24T18:13:43.770Z,60.47
2022-10-24T18:16:11.526Z,60.21
2022-10-24T18:18:40.081Z,60.33
2022-10-24T18:21:10.929Z,60.66
2022-10-24T18:23:38.890Z,60.64
2022-10-24T18:26:09.975Z,60.55
2022-10-24T18:28:40.953Z,60.79
2022-10-24T18:31:11.104Z,60.84
2022-10-24T18:33:38.140Z,60.51
2022-10-24T18:36:15.721Z,60.22
2022-10-24T18:38:44.836Z,60.05
2022-10-24T18:41:23.821Z,60.42
2022-10-24T18:43:51.185Z,60.54
2022-10-24T18:46:18.862Z,60.82
2022-10-24T18:48:48.692Z,60.89
2022-10-24T18:51:25.990Z,60.08
2022-10-24T18:53:53.186Z,60.88
2022-10-24T18:56:20.888Z,61.26
2022-10-24T18:58:49.704Z,60.85
2022-10-24T19:01:23.182Z,60.48
2022-10-24T19:03:50.734Z,60.94
2022-10-24T19:06:30.749Z,60.99
2022-10-24T19:08:58.208Z,60.92
2022-10-24T19:11:25.501Z,61.29
2022-10-24T19:13:52.702Z,61.76
2022-10-24T19:16:21.606Z,61.77
2022-10-24T19:18:54.371Z,62.19
2022-10-24T19:21:27.097Z,63.02
2022-10-24T19:23:57.320Z,62.19
2022-10-24T19:26:25.316Z,62.05
2022-10-24T19:28:52.757Z,61.58
2022-10-24T19:31:19.967Z,61.80
2022-10-24T19:33:47.452Z,61.50
2022-10-24T19:36:19.362Z,61.86
2022-10-24T19:38:46.412Z,62.00
2022-10-24T19:41:14.730Z,62.13
2022-10-24T19:43:44.984Z,62.11
2022-10-24T19:46:19.687Z,62.12
2022-10-24T19:48:50.897Z,62.18
2022-10-24T19:51:18.395Z,61.71
2022-10-24T19:53:45.845Z,61.66
2022-10-24T19:56:25.427Z,61.83
2022-10-24T19:58:52.724Z,62.28
2022-10-24T20:01:22.349Z,62.32
2022-10-24T20:03:51.530Z,61.22
2022-10-24T20:06:19.390Z,62.17
2022-10-24T20:08:47.074Z,62.18
2022-10-24T20:11:16.454Z,61.86
2022-10-24T20:13:46.656Z,62.13
2022-10-24T20:16:13.949Z,62.10
2022-10-24T20:18:43.693Z,62.36
2022-10-24T20:21:13.971Z,62.31
2022-10-24T20:23:41.763Z,62.14
2022-10-24T20:26:09.959Z,61.41
2022-10-24T20:28:37.809Z,61.49
2022-10-24T20:31:06.207Z,61.39
2022-10-24T20:33:34.199Z,62.39
2022-10-24T20:36:04.591Z,62.35
2022-10-24T20:38:32.687Z,62.80
2022-10-24T20:41:03.128Z,62.73
2022-10-24T20:43:29.939Z,62.49
2022-10-24T20:46:01.634Z,62.67
2022-10-24T20:48:28.943Z,62.38
2022-10-24T20:51:03.195Z,62.34
2022-10-24T20:53:30.856Z,63.08
2022-10-24T20:55:57.702Z,62.84
2022-10-24T20:58:28.987Z,62.87
2022-10-24T21:00:56.184Z,63.63
2022-10-24T21:03:23.826Z,64.36
2022-10-24T21:05:50.680Z,67.16
2022-10-24T21:08:19.053Z,65.41
2022-10-24T21:10:45.898Z,64.42
2022-10-24T21:13:12.657Z,64.30
2022-10-24T21:15:39.737Z,63.73
2022-10-24T21:18:06.502Z,63.78
2022-10-24T21:20:33.148Z,63.59
2022-10-24T21:23:00.185Z,63.28
2022-10-24T21:25:26.846Z,63.44
2022-10-24T21:27:53.486Z,63.69
2022-10-24T21:30:20.421Z,63.52
2022-10-24T21:32:47.125Z,63.06
2022-10-24T21:35:13.871Z,63.06
2022-10-24T21:37:40.792Z,62.94
2022-10-24T21:40:07.588Z,62.91
2022-10-24T21:42:34.703Z,62.64
2022-10-24T21:45:01.640Z,62.62
2022-10-24T21:47:28.319Z,62.61
2022-10-24T21:49:54.990Z,62.80
2022-10-24T21:52:22.028Z,62.91
2022-10-24T21:54:48.714Z,62.50
2022-10-24T21:57:15.339Z,62.96
2022-10-24T21:59:42.217Z,63.16
2022-10-24T22:02:09.370Z,62.98
2022-10-24T22:04:36.389Z,62.85
2022-10-24T22:07:03.121Z,62.85
2022-10-24T22:09:29.823Z,62.72
2022-10-24T22:11:58.078Z,63.27
2022-10-24T22:14:25.161Z,62.66
2022-10-24T22:16:51.891Z,62.42
2022-10-24T22:19:18.936Z,62.18
2022-10-24T22:21:46.482Z,63.10
2022-10-24T22:24:23.131Z,63.09
2022-10-24T22:26:50.302Z,63.06
2022-10-24T22:29:18.107Z,62.67
2022-10-24T22:31:45.082Z,63.03
2022-10-24T22:34:16.175Z,62.83
2022-10-24T22:36:43.272Z,62.78
2022-10-24T22:39:20.111Z,62.95
2022-10-24T22:41:47.275Z,62.67
2022-10-24T22:44:15.628Z,62.88
2022-10-24T22:46:53.628Z,63.10
2022-10-24T22:49:27.902Z,63.02
2022-10-24T22:51:54.807Z,63.09
2022-10-24T22:54:22.519Z,62.81
2022-10-24T22:56:49.350Z,63.22
2022-10-24T22:59:16.173Z,62.61
2022-10-24T23:01:49.094Z,62.84
2022-10-24T23:04:20.067Z,63.26
2022-10-24T23:06:49.053Z,62.75
2022-10-24T23:09:15.713Z,62.42
2022-10-24T23:11:42.532Z,62.82
2022-10-24T23:14:10.124Z,63.18
2022-10-24T23:16:43.037Z,63.39
2022-10-24T23:19:20.600Z,63.68
2022-10-24T23:21:49.083Z,63.36
2022-10-24T23:24:16.629Z,63.16
2022-10-24T23:26:46.979Z,63.29
2022-10-24T23:29:13.597Z,63.15
2022-10-24T23:31:40.626Z,63.11
2022-10-24T23:34:08.922Z,62.99
2022-10-24T23:36:35.748Z,63.16
2022-10-24T23:39:02.894Z,63.35
2022-10-24T23:41:29.597Z,63.09
2022-10-24T23:43:56.530Z,63.16
2022-10-24T23:46:27.738Z,63.29
2022-10-24T23:48:54.430Z,63.72
2022-10-24T23:51:25.444Z,63.72
2022-10-24T23:53:53.277Z,63.35
2022-10-24T23:56:21.221Z,63.11
2022-10-24T23:58:48.123Z,63.56
